Austin, Minnesota
Current Conditions -  °F | °C
As of 11:16 PM on Wednesday 22 Oct 2014 (Local Time) from KAUM Reporting Station
Scattered Clouds Scattered Clouds  
Wind Chill: 52°   Ceiling: Unl
Heat Index: 52°   Visibility: 10mi
Dew Point: 41°   Wind: 9mph
Humidity: 67%   Direction: 170°S
Pressure: 30.1"   Gusts: NA
Location:  43.67°N, 92.97°W
Report Text: KAUM 230416Z AUTO 17008KT 10SM SCT055 SCT075 SCT100 11/05 A3010 RMK AO2
Loading
Personal Weather Stations






























Interactive Weather Map
Tropical Storm Tracking
New forecast layout! Learn more

10-Day Weather Forecast

Advertisements
Track Severe Weather on mobile